createdAt,value
2017-08-02T00:01:51.136Z,7.97
2017-08-02T00:04:18.543Z,8.10
2017-08-02T00:06:45.935Z,8.43
2017-08-02T00:09:13.538Z,7.90
2017-08-02T00:11:40.934Z,7.30
2017-08-02T00:14:08.326Z,7.43
2017-08-02T00:16:35.746Z,7.33
2017-08-02T00:19:03.131Z,8.17
2017-08-02T00:21:30.534Z,8.07
2017-08-02T00:23:57.932Z,9.17
2017-08-02T00:26:25.340Z,6.97
2017-08-02T00:28:52.725Z,7.57
2017-08-02T00:31:20.148Z,8.13
2017-08-02T00:33:47.553Z,8.20
2017-08-02T00:36:14.956Z,7.80
2017-08-02T00:38:42.363Z,9.43
2017-08-02T00:41:09.783Z,9.70
2017-08-02T00:43:37.175Z,9.23
2017-08-02T00:46:04.564Z,8.70
2017-08-02T00:48:31.960Z,8.97
2017-08-02T00:50:59.353Z,10.00
2017-08-02T00:53:26.757Z,8.60
2017-08-02T00:55:54.359Z,9.43
2017-08-02T00:58:21.776Z,9.40
2017-08-02T01:00:49.162Z,8.47
2017-08-02T01:03:16.580Z,10.10
2017-08-02T01:05:43.972Z,11.23
2017-08-02T01:08:11.375Z,9.80
2017-08-02T01:10:38.805Z,10.00
2017-08-02T01:13:06.194Z,10.30
2017-08-02T01:15:33.593Z,10.73
2017-08-02T01:18:00.999Z,9.90
2017-08-02T01:20:28.422Z,10.40
2017-08-02T01:22:55.827Z,9.33
2017-08-02T01:25:23.436Z,9.97
2017-08-02T01:27:50.842Z,9.10
2017-08-02T01:30:18.235Z,10.50
2017-08-02T01:32:45.638Z,10.70
2017-08-02T01:35:13.035Z,9.33
2017-08-02T01:37:40.439Z,10.13
2017-08-02T01:40:07.831Z,9.93
2017-08-02T01:42:35.254Z,10.13
2017-08-02T01:45:02.660Z,10.47
2017-08-02T01:47:30.061Z,9.80
2017-08-02T01:49:57.458Z,9.93
2017-08-02T01:52:24.863Z,10.50
2017-08-02T01:54:52.263Z,11.30
2017-08-02T01:57:19.663Z,10.67
2017-08-02T01:59:47.103Z,11.60
2017-08-02T02:02:14.483Z,10.40
2017-08-02T02:04:41.892Z,10.50
2017-08-02T02:07:09.282Z,10.27
2017-08-02T02:09:36.678Z,7.93
2017-08-02T02:12:04.060Z,7.93
2017-08-02T02:14:31.449Z,8.80
2017-08-02T02:16:58.835Z,8.37
2017-08-02T02:19:26.229Z,6.87
2017-08-02T02:21:53.614Z,7.10
2017-08-02T02:24:21.014Z,9.13
2017-08-02T02:26:48.411Z,7.53
2017-08-02T02:29:15.808Z,7.63
2017-08-02T02:31:43.199Z,8.60
2017-08-02T02:34:10.583Z,9.00
2017-08-02T02:36:37.983Z,9.27
2017-08-02T02:39:05.369Z,8.60
2017-08-02T02:41:32.774Z,8.93
2017-08-02T02:44:00.179Z,10.83
2017-08-02T02:46:27.575Z,8.13
2017-08-02T02:48:54.964Z,7.30
2017-08-02T02:51:22.364Z,8.60
2017-08-02T02:53:49.759Z,8.67
2017-08-02T02:56:17.155Z,8.00
2017-08-02T02:58:44.538Z,8.97
2017-08-02T03:01:11.943Z,10.10
2017-08-02T03:03:39.331Z,9.93
2017-08-02T03:06:06.726Z,9.43
2017-08-02T03:08:34.131Z,10.90
2017-08-02T03:11:01.536Z,10.17
2017-08-02T03:13:28.926Z,9.80
2017-08-02T03:15:56.323Z,8.50
2017-08-02T03:18:23.727Z,9.23
2017-08-02T03:20:51.135Z,9.90
2017-08-02T03:23:18.526Z,8.50
2017-08-02T03:25:45.936Z,8.83
2017-08-02T03:28:13.340Z,9.37
2017-08-02T03:30:40.744Z,9.70
2017-08-02T03:33:08.128Z,8.17
2017-08-02T03:35:35.743Z,8.93
2017-08-02T03:38:03.136Z,10.37
2017-08-02T03:40:30.755Z,8.77
2017-08-02T03:42:58.147Z,8.63
2017-08-02T03:45:25.551Z,9.30
2017-08-02T03:47:52.944Z,8.30
2017-08-02T03:50:20.351Z,8.90
2017-08-02T03:52:47.730Z,8.70
2017-08-02T03:55:15.131Z,10.10
2017-08-02T03:57:42.518Z,9.40
2017-08-02T04:00:10.010Z,9.93
2017-08-02T04:02:37.425Z,9.17
2017-08-02T04:05:04.858Z,9.97
2017-08-02T04:07:32.316Z,10.23
2017-08-02T04:09:59.718Z,10.73
2017-08-02T04:12:27.122Z,11.40
2017-08-02T04:14:54.531Z,10.97
2017-08-02T04:17:21.928Z,13.30
2017-08-02T04:19:49.340Z,11.10
2017-08-02T04:22:16.768Z,10.27
2017-08-02T04:24:44.171Z,9.87
2017-08-02T04:27:11.563Z,9.53
2017-08-02T04:29:39.007Z,10.10
2017-08-02T04:32:06.578Z,10.93
2017-08-02T04:34:34.026Z,11.73
2017-08-02T04:37:01.432Z,12.30
2017-08-02T04:39:28.835Z,9.77
2017-08-02T04:41:56.443Z,12.20
2017-08-02T04:44:23.872Z,10.43
2017-08-02T04:46:51.267Z,10.60
2017-08-02T04:49:18.662Z,13.47
2017-08-02T04:51:46.067Z,12.70
2017-08-02T04:54:13.470Z,14.07
2017-08-02T04:56:40.862Z,12.57
2017-08-02T04:59:08.251Z,13.00
2017-08-02T05:01:35.662Z,14.30
2017-08-02T05:04:03.275Z,15.73
2017-08-02T05:06:30.677Z,13.77
2017-08-02T05:08:58.085Z,14.97
2017-08-02T05:11:25.491Z,13.53
2017-08-02T05:13:52.890Z,15.30
2017-08-02T05:16:20.295Z,14.40
2017-08-02T05:18:47.692Z,13.30
2017-08-02T05:21:15.094Z,13.30
2017-08-02T05:23:42.490Z,14.70
2017-08-02T05:26:09.962Z,13.53
2017-08-02T05:28:37.356Z,15.93
2017-08-02T05:31:04.759Z,17.30
2017-08-02T05:33:32.167Z,19.20
2017-08-02T05:35:59.571Z,19.10
2017-08-02T05:38:26.972Z,18.87
2017-08-02T05:40:54.671Z,21.50
2017-08-02T05:43:22.069Z,18.60
2017-08-02T05:45:49.494Z,16.60
2017-08-02T05:48:16.883Z,17.73
2017-08-02T05:50:44.290Z,18.23
2017-08-02T05:53:11.690Z,16.10
2017-08-02T05:55:39.127Z,15.90
2017-08-02T05:58:06.531Z,19.00
2017-08-02T06:00:34.014Z,17.67
2017-08-02T06:03:01.431Z,16.37
2017-08-02T06:05:28.838Z,18.33
2017-08-02T06:07:56.303Z,17.40
2017-08-02T06:10:23.939Z,16.40
2017-08-02T06:12:51.347Z,15.53
2017-08-02T06:15:18.769Z,16.30
2017-08-02T06:17:46.171Z,20.50
2017-08-02T06:20:13.576Z,20.63
2017-08-02T06:22:40.981Z,19.07
2017-08-02T06:25:08.678Z,16.30
2017-08-02T06:27:36.083Z,16.10
2017-08-02T06:30:03.503Z,16.60
2017-08-02T06:32:30.908Z,17.67
2017-08-02T06:34:58.307Z,17.03
2017-08-02T06:37:26.739Z,16.00
2017-08-02T06:39:57.594Z,14.00
2017-08-02T06:42:24.987Z,13.77
2017-08-02T06:44:52.378Z,13.07
2017-08-02T06:47:19.803Z,16.00
2017-08-02T06:49:47.182Z,16.07
2017-08-02T06:52:14.599Z,16.23
2017-08-02T06:54:41.986Z,14.20
2017-08-02T06:57:09.695Z,14.70
2017-08-02T06:59:37.091Z,15.90
2017-08-02T07:02:04.510Z,10.53
2017-08-02T07:04:31.911Z,10.80
2017-08-02T07:06:59.303Z,13.20
2017-08-02T07:09:26.707Z,11.63
2017-08-02T07:11:54.109Z,10.30
2017-08-02T07:14:21.515Z,9.17
2017-08-02T07:16:48.914Z,10.10
2017-08-02T07:19:16.326Z,12.00
2017-08-02T07:21:43.721Z,12.13
2017-08-02T07:24:11.122Z,10.80
2017-08-02T07:26:38.507Z,11.80
2017-08-02T07:29:06.144Z,12.20
2017-08-02T07:31:33.535Z,12.33
2017-08-02T07:34:00.957Z,10.53
2017-08-02T07:36:28.346Z,11.20
2017-08-02T07:38:56.062Z,10.07
2017-08-02T07:41:23.459Z,11.60
2017-08-02T07:43:50.855Z,8.50
2017-08-02T07:46:18.255Z,9.93
2017-08-02T07:48:45.663Z,11.07
2017-08-02T07:51:13.054Z,9.20
2017-08-02T07:53:40.438Z,9.10
2017-08-02T07:56:07.850Z,10.40
2017-08-02T07:58:35.246Z,9.33
2017-08-02T08:01:02.650Z,9.90
2017-08-02T08:03:30.037Z,9.43
2017-08-02T08:05:57.439Z,9.67
2017-08-02T08:08:24.847Z,10.30
2017-08-02T08:10:52.262Z,8.57
2017-08-02T08:13:19.655Z,7.67
2017-08-02T08:15:47.295Z,8.50
2017-08-02T08:18:14.695Z,7.47
2017-08-02T08:20:42.095Z,6.87
2017-08-02T08:23:09.483Z,9.07
2017-08-02T08:25:36.884Z,7.87
2017-08-02T08:28:04.279Z,7.60
2017-08-02T08:30:31.694Z,7.43
2017-08-02T08:32:59.388Z,7.60
2017-08-02T08:35:26.785Z,7.27
2017-08-02T08:37:54.187Z,6.50
2017-08-02T08:40:21.859Z,7.30
2017-08-02T08:42:49.260Z,6.30
2017-08-02T08:45:16.654Z,5.83
2017-08-02T08:47:44.062Z,7.80
2017-08-02T08:50:11.450Z,7.27
2017-08-02T08:52:38.852Z,7.37
2017-08-02T08:55:06.243Z,6.30
2017-08-02T08:57:33.959Z,7.70
2017-08-02T09:00:01.342Z,6.77
2017-08-02T09:02:28.742Z,5.60
2017-08-02T09:04:56.134Z,5.70
2017-08-02T09:07:23.550Z,7.50
2017-08-02T09:09:50.943Z,6.80
2017-08-02T09:12:18.343Z,6.43
2017-08-02T09:14:45.942Z,7.40
2017-08-02T09:17:13.563Z,6.80
2017-08-02T09:19:40.958Z,5.50
2017-08-02T09:22:08.375Z,6.37
2017-08-02T09:24:35.776Z,5.93
2017-08-02T09:27:03.155Z,5.93
2017-08-02T09:29:30.771Z,7.30
2017-08-02T09:31:58.149Z,5.73
2017-08-02T09:34:25.552Z,6.37
2017-08-02T09:36:52.933Z,5.60
2017-08-02T09:39:20.326Z,5.57
2017-08-02T09:41:47.734Z,6.07
2017-08-02T09:44:15.122Z,6.03
2017-08-02T09:46:42.514Z,5.30
2017-08-02T09:49:09.907Z,4.90
2017-08-02T09:51:37.304Z,5.27
2017-08-02T09:54:04.709Z,6.00
2017-08-02T09:56:32.094Z,5.23
2017-08-02T09:58:59.695Z,4.20
2017-08-02T10:01:27.075Z,5.03
2017-08-02T10:03:54.467Z,5.63
2017-08-02T10:06:21.862Z,4.37
2017-08-02T10:08:49.263Z,4.03
2017-08-02T10:11:16.646Z,3.00
2017-08-02T10:13:44.271Z,5.00
2017-08-02T10:16:11.662Z,5.20
2017-08-02T10:18:39.058Z,3.33
2017-08-02T10:21:06.451Z,3.53
2017-08-02T10:23:33.831Z,3.77
2017-08-02T10:26:01.222Z,3.90
2017-08-02T10:28:28.620Z,3.87
2017-08-02T10:30:56.018Z,3.73
2017-08-02T10:33:23.425Z,3.27
2017-08-02T10:35:50.807Z,3.30
2017-08-02T10:38:18.199Z,3.37
2017-08-02T10:40:45.595Z,3.17
2017-08-02T10:43:12.983Z,4.23
2017-08-02T10:45:40.586Z,3.27
2017-08-02T10:48:08.196Z,3.40
2017-08-02T10:50:35.587Z,3.30
2017-08-02T10:53:02.975Z,3.37
2017-08-02T10:55:30.387Z,3.17
2017-08-02T10:57:57.776Z,3.23
2017-08-02T11:00:25.167Z,3.50
2017-08-02T11:02:52.555Z,3.60
2017-08-02T11:05:19.954Z,4.70
2017-08-02T11:07:47.346Z,4.60
2017-08-02T11:10:14.759Z,4.83
2017-08-02T11:12:42.137Z,4.43
2017-08-02T11:15:09.531Z,5.10
2017-08-02T11:17:36.921Z,5.90
2017-08-02T11:20:04.319Z,5.40
2017-08-02T11:22:31.711Z,5.97
2017-08-02T11:24:59.339Z,6.70
2017-08-02T11:27:26.722Z,6.87
2017-08-02T11:29:54.115Z,7.20
2017-08-02T11:32:21.515Z,7.93
2017-08-02T11:34:49.967Z,8.00
2017-08-02T11:37:17.361Z,6.03
2017-08-02T11:39:44.787Z,7.47
2017-08-02T11:42:12.173Z,5.97
2017-08-02T11:44:39.563Z,8.93
2017-08-02T11:47:06.982Z,8.17
2017-08-02T11:49:34.376Z,7.30
2017-08-02T11:52:01.776Z,8.40
2017-08-02T11:54:29.204Z,8.13
2017-08-02T11:56:56.598Z,7.67
2017-08-02T11:59:23.991Z,6.20
2017-08-02T12:01:51.607Z,6.73
2017-08-02T12:04:19.000Z,6.70
2017-08-02T12:06:46.396Z,6.20
2017-08-02T12:09:13.799Z,6.67
2017-08-02T12:11:41.431Z,6.20
2017-08-02T12:14:08.818Z,8.00
2017-08-02T12:16:36.208Z,4.87
2017-08-02T12:19:03.603Z,7.40
2017-08-02T12:21:30.991Z,6.60
2017-08-02T12:23:58.382Z,4.90
2017-08-02T12:26:25.779Z,5.50
2017-08-02T12:28:53.178Z,5.77
2017-08-02T12:31:20.565Z,5.00
2017-08-02T12:33:47.959Z,5.07
2017-08-02T12:36:15.355Z,7.33
2017-08-02T12:38:42.763Z,6.63
2017-08-02T12:41:10.163Z,5.40
2017-08-02T12:43:37.559Z,4.33
2017-08-02T12:46:05.154Z,5.70
2017-08-02T12:48:32.545Z,4.53
2017-08-02T12:50:59.951Z,4.50
2017-08-02T12:53:27.343Z,7.40
2017-08-02T12:55:54.739Z,5.90
2017-08-02T12:58:22.131Z,5.60
2017-08-02T13:00:49.532Z,5.80
2017-08-02T13:03:16.919Z,5.27
2017-08-02T13:05:44.356Z,6.27
2017-08-02T13:08:11.747Z,7.10
2017-08-02T13:10:39.151Z,4.70
2017-08-02T13:13:06.533Z,5.47
2017-08-02T13:15:33.938Z,5.60
2017-08-02T13:18:01.319Z,6.30
2017-08-02T13:20:28.721Z,6.03
2017-08-02T13:22:56.327Z,5.63
2017-08-02T13:25:23.715Z,5.40
2017-08-02T13:27:51.322Z,5.30
2017-08-02T13:30:18.727Z,6.90
2017-08-02T13:32:46.121Z,5.73
2017-08-02T13:35:13.735Z,8.27
2017-08-02T13:37:41.134Z,10.77
2017-08-02T13:40:08.531Z,11.20
2017-08-02T13:42:35.931Z,10.93
2017-08-02T13:45:03.328Z,12.23
2017-08-02T13:47:30.735Z,11.90
2017-08-02T13:49:58.136Z,13.13
2017-08-02T13:52:25.752Z,11.67
2017-08-02T13:54:53.142Z,11.03
2017-08-02T13:57:20.539Z,8.43
2017-08-02T13:59:47.928Z,3.70
2017-08-02T14:02:15.319Z,3.20
2017-08-02T14:04:42.712Z,3.97
2017-08-02T14:07:10.102Z,4.50
2017-08-02T14:09:37.485Z,3.63
2017-08-02T14:12:04.875Z,3.43
2017-08-02T14:14:32.277Z,2.60
2017-08-02T14:16:59.886Z,2.40
2017-08-02T14:19:27.282Z,2.40
2017-08-02T14:21:54.676Z,2.30
2017-08-02T14:24:22.085Z,2.23
2017-08-02T14:26:49.466Z,2.23
2017-08-02T14:29:16.878Z,2.57
2017-08-02T14:31:44.276Z,2.30
2017-08-02T14:34:11.870Z,3.53
2017-08-02T14:36:39.270Z,3.50
2017-08-02T14:39:06.662Z,4.37
2017-08-02T14:41:34.046Z,5.40
2017-08-02T14:44:01.443Z,4.97
2017-08-02T14:46:28.826Z,4.40
2017-08-02T14:48:56.232Z,4.57
2017-08-02T14:51:23.667Z,4.80
2017-08-02T14:53:51.060Z,4.60
2017-08-02T14:56:18.663Z,5.00
2017-08-02T14:58:46.275Z,5.57
2017-08-02T15:01:13.668Z,5.57
2017-08-02T15:03:41.070Z,5.20
2017-08-02T15:06:08.450Z,5.10
2017-08-02T15:08:35.851Z,5.47
2017-08-02T15:11:03.249Z,5.50
2017-08-02T15:13:30.640Z,5.50
2017-08-02T15:15:58.027Z,5.83
2017-08-02T15:18:25.661Z,6.83
2017-08-02T15:20:53.055Z,5.07
2017-08-02T15:23:20.449Z,5.67
2017-08-02T15:25:47.842Z,5.90
2017-08-02T15:28:15.242Z,6.93
2017-08-02T15:30:42.630Z,6.47
2017-08-02T15:33:10.035Z,5.97
2017-08-02T15:35:37.480Z,5.70
2017-08-02T15:38:05.090Z,5.67
2017-08-02T15:40:32.686Z,6.17
2017-08-02T15:43:00.083Z,5.10
2017-08-02T15:45:27.482Z,6.30
2017-08-02T15:47:54.884Z,5.83
2017-08-02T15:50:22.303Z,5.23
2017-08-02T15:52:49.675Z,5.37
2017-08-02T15:55:17.071Z,5.03
2017-08-02T15:57:44.475Z,5.00
2017-08-02T16:00:11.876Z,4.80
2017-08-02T16:02:39.269Z,6.10
2017-08-02T16:05:06.663Z,6.30
2017-08-02T16:07:34.060Z,5.67
2017-08-02T16:10:01.460Z,5.13
2017-08-02T16:12:28.882Z,5.47
2017-08-02T16:14:56.263Z,6.30
2017-08-02T16:17:23.668Z,5.90
2017-08-02T16:19:51.068Z,5.47
2017-08-02T16:22:18.467Z,5.60
2017-08-02T16:24:45.862Z,5.60
2017-08-02T16:27:13.255Z,5.60
2017-08-02T16:29:40.650Z,4.97
2017-08-02T16:32:08.031Z,5.47
2017-08-02T16:34:35.634Z,5.90
2017-08-02T16:37:03.033Z,5.20
2017-08-02T16:39:30.426Z,5.90
2017-08-02T16:41:57.826Z,5.20
2017-08-02T16:44:25.219Z,5.07
2017-08-02T16:46:53.307Z,6.13
2017-08-02T16:49:20.922Z,4.87
2017-08-02T16:51:48.323Z,5.03
2017-08-02T16:54:15.731Z,4.47
2017-08-02T16:56:43.120Z,5.50
2017-08-02T16:59:10.735Z,5.77
2017-08-02T17:01:38.127Z,5.50
2017-08-02T17:04:05.517Z,6.00
2017-08-02T17:06:32.902Z,5.57
2017-08-02T17:09:00.514Z,5.53
2017-08-02T17:11:27.893Z,4.87
2017-08-02T17:16:29.114Z,5.90
2017-08-02T17:18:56.539Z,6.23
2017-08-02T17:21:23.982Z,5.33
2017-08-02T17:23:51.367Z,4.70
2017-08-02T17:26:18.769Z,5.03
2017-08-02T17:28:46.150Z,5.33
2017-08-02T17:31:13.578Z,6.40
2017-08-02T17:33:40.950Z,4.80
2017-08-02T17:36:08.345Z,6.50
2017-08-02T17:38:35.739Z,6.10
2017-08-02T17:41:03.137Z,6.77
2017-08-02T17:43:30.532Z,5.90
2017-08-02T17:45:57.930Z,5.10
2017-08-02T17:48:25.350Z,5.30
2017-08-02T17:50:52.741Z,4.43
2017-08-02T17:53:20.127Z,5.50
2017-08-02T17:55:47.542Z,4.97
2017-08-02T17:58:14.923Z,5.37
2017-08-02T18:00:42.311Z,5.70
2017-08-02T18:03:09.920Z,5.20
2017-08-02T18:05:37.310Z,5.80
2017-08-02T18:08:04.710Z,5.40
2017-08-02T18:10:32.108Z,6.00
2017-08-02T18:12:59.505Z,3.47
2017-08-02T18:15:26.891Z,5.17
2017-08-02T18:17:54.297Z,4.63
2017-08-02T18:20:21.859Z,4.30
2017-08-02T18:22:49.297Z,4.50
2017-08-02T18:25:16.687Z,4.43
2017-08-02T18:27:44.775Z,4.67
2017-08-02T18:30:12.159Z,4.87
2017-08-02T18:32:39.558Z,3.90
2017-08-02T18:35:06.955Z,3.30
2017-08-02T18:37:34.350Z,4.30
2017-08-02T18:40:01.750Z,4.10
2017-08-02T18:42:30.147Z,4.97
2017-08-02T18:44:57.538Z,4.47
2017-08-02T18:47:25.203Z,3.83
2017-08-02T18:49:52.586Z,5.43
2017-08-02T18:52:19.996Z,5.67
2017-08-02T18:54:47.384Z,4.70
2017-08-02T18:57:14.773Z,3.83
2017-08-02T18:59:42.177Z,3.90
2017-08-02T19:02:09.597Z,4.17
2017-08-02T19:04:36.987Z,3.40
2017-08-02T19:07:04.375Z,3.10
2017-08-02T19:09:31.769Z,3.40
2017-08-02T19:11:59.148Z,3.63
2017-08-02T19:14:26.561Z,4.13
2017-08-02T19:16:54.151Z,4.53
2017-08-02T19:19:21.763Z,3.77
2017-08-02T19:21:49.150Z,3.20
2017-08-02T19:24:16.598Z,4.07
2017-08-02T19:26:44.194Z,4.10
2017-08-02T19:29:11.614Z,3.40
2017-08-02T19:31:39.017Z,3.77
2017-08-02T19:34:06.402Z,4.03
2017-08-02T19:36:34.004Z,3.90
2017-08-02T19:39:01.411Z,3.33
2017-08-02T19:41:28.805Z,3.23
2017-08-02T19:43:56.197Z,3.90
2017-08-02T19:46:23.586Z,4.10
2017-08-02T19:48:51.003Z,4.03
2017-08-02T19:51:18.394Z,5.33
2017-08-02T19:53:45.790Z,4.37
2017-08-02T19:56:13.182Z,4.60
2017-08-02T19:58:40.580Z,3.90
2017-08-02T20:01:07.960Z,5.00
2017-08-02T20:03:35.351Z,5.17
2017-08-02T20:06:02.738Z,5.50
2017-08-02T20:08:30.355Z,5.93
2017-08-02T20:10:57.759Z,5.50
2017-08-02T20:13:25.163Z,5.53
2017-08-02T20:15:52.563Z,4.53
2017-08-02T20:18:19.966Z,4.80
2017-08-02T20:20:47.354Z,5.00
2017-08-02T20:23:14.781Z,4.90
2017-08-02T20:25:42.159Z,5.80
2017-08-02T20:28:09.547Z,5.17
2017-08-02T20:30:36.939Z,5.90
2017-08-02T20:33:04.332Z,5.07
2017-08-02T20:35:31.842Z,5.60
2017-08-02T20:38:00.119Z,5.60
2017-08-02T20:40:27.723Z,5.50
2017-08-02T20:42:55.106Z,5.07
2017-08-02T20:45:22.519Z,5.03
2017-08-02T20:47:50.136Z,5.27
2017-08-02T20:50:17.527Z,5.97
2017-08-02T20:52:44.923Z,5.40
2017-08-02T20:55:12.303Z,6.07
2017-08-02T20:57:39.700Z,6.20
2017-08-02T21:00:07.094Z,7.10
2017-08-02T21:02:34.491Z,8.00
2017-08-02T21:05:01.878Z,7.93
2017-08-02T21:07:29.271Z,7.10
2017-08-02T21:09:56.875Z,10.13
2017-08-02T21:12:24.276Z,9.60
2017-08-02T21:14:51.679Z,9.27
2017-08-02T21:17:19.082Z,9.13
2017-08-02T21:19:46.696Z,8.63
2017-08-02T21:22:14.091Z,7.37
2017-08-02T21:24:41.516Z,7.30
2017-08-02T21:27:08.891Z,6.63
2017-08-02T21:29:36.284Z,5.60
2017-08-02T21:32:03.688Z,6.67
2017-08-02T21:34:31.087Z,7.00
2017-08-02T21:36:58.484Z,6.30
2017-08-02T21:39:25.872Z,6.80
2017-08-02T21:41:53.270Z,6.50
2017-08-02T21:44:20.658Z,5.60
2017-08-02T21:46:48.052Z,6.13
2017-08-02T21:49:15.434Z,4.30
2017-08-02T21:51:43.046Z,4.73
2017-08-02T21:54:10.652Z,5.30
2017-08-02T21:56:38.261Z,5.70
2017-08-02T21:59:05.648Z,5.00
2017-08-02T22:01:33.087Z,5.27
2017-08-02T22:04:00.477Z,4.40
2017-08-02T22:06:28.091Z,5.00
2017-08-02T22:08:55.478Z,4.10
2017-08-02T22:11:22.862Z,4.37
2017-08-02T22:13:50.259Z,4.70
2017-08-02T22:16:17.651Z,4.07
2017-08-02T22:18:45.047Z,3.83
2017-08-02T22:21:12.435Z,3.90
2017-08-02T22:23:39.825Z,3.80
2017-08-02T22:26:07.236Z,4.37
2017-08-02T22:28:34.625Z,3.77
2017-08-02T22:31:02.021Z,3.90
2017-08-02T22:33:29.420Z,3.80
2017-08-02T22:35:56.813Z,4.37
2017-08-02T22:38:24.198Z,3.70
2017-08-02T22:40:51.586Z,4.40
2017-08-02T22:43:18.976Z,3.90
2017-08-02T22:45:46.358Z,4.50
2017-08-02T22:48:13.764Z,4.03
2017-08-02T22:50:41.147Z,4.13
2017-08-02T22:53:08.538Z,4.30
2017-08-02T22:55:35.928Z,4.00
2017-08-02T22:58:03.311Z,3.73
2017-08-02T23:00:30.700Z,4.20
2017-08-02T23:02:58.101Z,3.70
2017-08-02T23:05:25.480Z,3.40
2017-08-02T23:07:52.893Z,4.10
2017-08-02T23:10:20.259Z,4.30
2017-08-02T23:12:47.658Z,3.80
2017-08-02T23:15:15.043Z,7.30
2017-08-02T23:17:42.436Z,7.03
2017-08-02T23:20:09.827Z,7.20
2017-08-02T23:22:37.223Z,8.00
2017-08-02T23:25:04.618Z,9.50
2017-08-02T23:27:32.018Z,7.40
2017-08-02T23:29:59.410Z,6.40
2017-08-02T23:32:26.799Z,6.50
2017-08-02T23:34:54.189Z,5.90
2017-08-02T23:37:21.606Z,6.70
2017-08-02T23:39:48.993Z,6.20
2017-08-02T23:42:16.401Z,6.00
2017-08-02T23:44:43.782Z,6.27
2017-08-02T23:47:11.179Z,5.77
2017-08-02T23:49:38.586Z,5.57
2017-08-02T23:52:05.963Z,5.23
2017-08-02T23:54:33.360Z,6.47
2017-08-02T23:57:00.763Z,5.93
2017-08-02T23:59:28.139Z,5.13
